createdAt,value
2023-02-17T00:01:40.702Z,5.10
2023-02-17T00:04:09.192Z,4.82
2023-02-17T00:06:37.421Z,4.75
2023-02-17T00:09:05.743Z,4.85
2023-02-17T00:11:34.338Z,4.47
2023-02-17T00:14:02.624Z,4.28
2023-02-17T00:16:31.232Z,4.13
2023-02-17T00:19:02.786Z,4.53
2023-02-17T00:21:33.341Z,4.60
2023-02-17T00:24:02.053Z,4.88
2023-02-17T00:26:30.584Z,4.50
2023-02-17T00:29:00.242Z,4.28
2023-02-17T00:31:28.692Z,4.50
2023-02-17T00:33:57.421Z,4.53
2023-02-17T00:36:28.653Z,4.93
2023-02-17T00:38:58.802Z,4.82
2023-02-17T00:41:28.556Z,4.68
2023-02-17T00:44:00.039Z,5.43
2023-02-17T00:46:28.768Z,5.72
2023-02-17T00:48:57.146Z,6.20
2023-02-17T00:51:27.862Z,5.80
2023-02-17T00:53:56.070Z,6.50
2023-02-17T00:56:24.452Z,6.43
2023-02-17T00:58:53.131Z,6.35
2023-02-17T01:01:21.445Z,7.35
2023-02-17T01:03:49.656Z,7.45
2023-02-17T01:06:25.131Z,7.80
2023-02-17T01:08:55.079Z,7.28
2023-02-17T01:11:26.452Z,7.22
2023-02-17T01:13:55.806Z,6.43
2023-02-17T01:16:26.661Z,5.32
2023-02-17T01:18:55.211Z,5.35
2023-02-17T01:21:25.030Z,4.38
2023-02-17T01:23:58.087Z,4.78
2023-02-17T01:26:27.973Z,4.60
2023-02-17T01:28:57.172Z,4.03
2023-02-17T01:31:28.112Z,4.22
2023-02-17T01:33:58.221Z,3.80
2023-02-17T01:36:26.671Z,3.45
2023-02-17T01:38:56.543Z,3.28
2023-02-17T01:41:27.803Z,3.17
2023-02-17T01:44:19.902Z,3.42
2023-02-17T01:46:50.249Z,3.92
2023-02-17T01:49:29.553Z,3.70
2023-02-17T01:52:02.994Z,3.95
2023-02-17T01:54:38.804Z,4.32
2023-02-17T01:57:07.593Z,3.83
2023-02-17T01:59:35.861Z,4.00
2023-02-17T02:02:06.734Z,4.32
2023-02-17T02:04:38.882Z,4.88
2023-02-17T02:07:11.789Z,4.38
2023-02-17T02:09:47.657Z,4.75
2023-02-17T02:12:21.091Z,4.50
2023-02-17T02:14:50.889Z,5.15
2023-02-17T02:17:29.142Z,5.07
2023-02-17T02:20:35.121Z,5.18
2023-02-17T02:23:27.772Z,5.47
2023-02-17T02:26:28.048Z,5.25
2023-02-17T02:29:24.033Z,5.53
2023-02-17T02:32:02.309Z,5.45
2023-02-17T02:34:35.508Z,6.10
2023-02-17T02:37:09.492Z,5.75
2023-02-17T02:39:44.345Z,5.75
2023-02-17T02:42:16.978Z,5.75
2023-02-17T02:44:45.440Z,5.93
2023-02-17T02:47:45.983Z,5.78
2023-02-17T02:50:18.771Z,5.93
2023-02-17T02:52:59.965Z,6.17
2023-02-17T02:55:39.926Z,6.50
2023-02-17T02:58:15.568Z,7.00
2023-02-17T03:00:54.318Z,7.32
2023-02-17T03:03:29.572Z,7.32
2023-02-17T03:06:05.933Z,6.75
2023-02-17T03:08:38.899Z,6.32
2023-02-17T03:11:08.176Z,6.97
2023-02-17T03:13:42.993Z,6.70
2023-02-17T03:16:15.011Z,6.90
2023-02-17T03:18:43.714Z,7.30
2023-02-17T03:21:17.823Z,6.72
2023-02-17T03:23:46.164Z,7.65
2023-02-17T03:26:14.449Z,7.20
2023-02-17T03:28:42.888Z,7.10
2023-02-17T03:31:11.457Z,8.07
2023-02-17T03:33:39.665Z,7.10
2023-02-17T03:36:08.875Z,7.75
2023-02-17T03:38:38.636Z,8.25
2023-02-17T03:41:07.049Z,8.32
2023-02-17T03:43:35.445Z,7.43
2023-02-17T03:46:04.056Z,7.80
2023-02-17T03:48:32.471Z,8.07
2023-02-17T03:51:00.870Z,7.93
2023-02-17T03:53:29.253Z,8.13
2023-02-17T03:55:58.862Z,8.52
2023-02-17T03:58:27.328Z,8.90
2023-02-17T04:00:55.865Z,8.30
2023-02-17T04:03:24.097Z,8.60
2023-02-17T04:05:52.805Z,8.45
2023-02-17T04:08:21.250Z,8.35
2023-02-17T04:10:53.588Z,8.00
2023-02-17T04:13:23.505Z,8.38
2023-02-17T04:15:52.206Z,8.05
2023-02-17T04:18:21.491Z,8.45
2023-02-17T04:20:51.210Z,8.18
2023-02-17T04:23:19.724Z,8.43
2023-02-17T04:25:48.808Z,7.65
2023-02-17T04:28:18.091Z,7.65
2023-02-17T04:30:49.154Z,6.95
2023-02-17T04:33:18.078Z,8.25
2023-02-17T04:35:46.741Z,7.75
2023-02-17T04:38:15.167Z,8.60
2023-02-17T04:40:44.185Z,7.80
2023-02-17T04:43:12.507Z,7.60
2023-02-17T04:45:40.800Z,7.25
2023-02-17T04:48:10.790Z,7.72
2023-02-17T04:50:39.050Z,7.70
2023-02-17T04:53:08.486Z,7.50
2023-02-17T04:55:36.777Z,8.00
2023-02-17T04:58:05.570Z,7.82
2023-02-17T05:00:33.852Z,7.68
2023-02-17T05:03:02.191Z,7.25
2023-02-17T05:05:31.907Z,7.22
2023-02-17T05:08:00.398Z,6.95
2023-02-17T05:10:28.955Z,6.75
2023-02-17T05:12:57.178Z,7.50
2023-02-17T05:15:25.623Z,7.55
2023-02-17T05:17:54.149Z,7.18
2023-02-17T05:20:22.636Z,6.97
2023-02-17T05:22:52.480Z,7.88
2023-02-17T05:25:20.727Z,7.45
2023-02-17T05:27:49.036Z,7.53
2023-02-17T05:30:17.908Z,6.93
2023-02-17T05:32:46.313Z,7.57
2023-02-17T05:35:14.569Z,7.70
2023-02-17T05:37:43.131Z,7.35
2023-02-17T05:40:13.272Z,7.60
2023-02-17T05:42:41.595Z,7.75
2023-02-17T05:45:10.379Z,6.90
2023-02-17T05:47:38.877Z,7.28
2023-02-17T05:50:08.444Z,7.45
2023-02-17T05:52:37.032Z,7.53
2023-02-17T05:55:06.024Z,7.60
2023-02-17T05:57:35.664Z,6.90
2023-02-17T06:00:04.678Z,7.25
2023-02-17T06:02:33.146Z,7.90
2023-02-17T06:05:01.420Z,7.78
2023-02-17T06:07:29.804Z,7.32
2023-02-17T06:09:58.570Z,7.82
2023-02-17T06:12:27.156Z,7.93
2023-02-17T06:14:56.808Z,7.47
2023-02-17T06:17:25.160Z,8.10
2023-02-17T06:19:53.416Z,8.40
2023-02-17T06:22:21.727Z,7.88
2023-02-17T06:24:49.897Z,7.55
2023-02-17T06:27:18.243Z,7.32
2023-02-17T06:29:46.497Z,7.13
2023-02-17T06:32:16.335Z,7.78
2023-02-17T06:34:44.534Z,7.60
2023-02-17T06:37:13.111Z,7.30
2023-02-17T06:39:41.590Z,7.00
2023-02-17T06:42:09.959Z,7.32
2023-02-17T06:44:38.286Z,6.95
2023-02-17T06:47:06.600Z,7.82
2023-02-17T06:49:36.288Z,7.60
2023-02-17T06:52:04.660Z,7.05
2023-02-17T06:54:32.832Z,7.45
2023-02-17T06:57:01.031Z,7.57
2023-02-17T06:59:29.478Z,7.18
2023-02-17T07:01:57.848Z,6.65
2023-02-17T07:04:26.691Z,7.38
2023-02-17T07:06:56.446Z,7.70
2023-02-17T07:09:24.754Z,7.30
2023-02-17T07:11:52.973Z,7.10
2023-02-17T07:14:22.516Z,6.55
2023-02-17T07:16:52.302Z,6.72
2023-02-17T07:19:20.636Z,6.40
2023-02-17T07:21:49.066Z,6.05
2023-02-17T07:24:18.936Z,5.28
2023-02-17T07:26:47.130Z,5.75
2023-02-17T07:29:15.434Z,4.85
2023-02-17T07:31:43.867Z,4.43
2023-02-17T07:34:12.090Z,4.28
2023-02-17T07:36:40.581Z,4.20
2023-02-17T07:39:09.131Z,3.65
2023-02-17T07:41:38.769Z,3.50
2023-02-17T07:44:07.462Z,2.65
2023-02-17T07:46:35.845Z,2.75
2023-02-17T07:49:04.051Z,2.55
2023-02-17T07:51:32.328Z,2.10
2023-02-17T07:54:02.316Z,2.20
2023-02-17T07:56:30.940Z,2.40
2023-02-17T07:59:00.602Z,2.25
2023-02-17T08:01:29.121Z,2.00
2023-02-17T08:03:58.178Z,2.22
2023-02-17T08:06:28.225Z,2.17
2023-02-17T08:09:14.652Z,2.00
2023-02-17T08:12:01.041Z,1.77
2023-02-17T08:14:33.395Z,2.05
2023-02-17T08:17:02.096Z,1.65
2023-02-17T08:19:46.544Z,1.75
2023-02-17T08:22:15.880Z,1.60
2023-02-17T08:24:44.288Z,1.90
2023-02-17T08:27:13.405Z,1.50
2023-02-17T08:29:43.696Z,1.85
2023-02-17T08:32:12.677Z,2.42
2023-02-17T08:34:40.848Z,2.33
2023-02-17T08:37:09.929Z,2.13
2023-02-17T08:39:38.555Z,2.10
2023-02-17T08:42:07.223Z,2.00
2023-02-17T08:44:37.649Z,1.63
2023-02-17T08:47:08.918Z,1.30
2023-02-17T08:49:37.468Z,1.63
2023-02-17T08:52:06.634Z,1.40
2023-02-17T08:54:35.211Z,1.15
2023-02-17T08:57:03.790Z,1.00
2023-02-17T08:59:32.154Z,1.05
2023-02-17T09:02:00.523Z,1.00
2023-02-17T09:04:30.440Z,1.02
2023-02-17T09:06:59.037Z,1.10
2023-02-17T09:09:29.217Z,1.23
2023-02-17T09:11:58.832Z,1.30
2023-02-17T09:14:29.213Z,1.20
2023-02-17T09:16:57.932Z,1.60
2023-02-17T09:19:26.844Z,1.58
2023-02-17T09:21:57.374Z,1.27
2023-02-17T09:24:25.808Z,1.65
2023-02-17T09:26:54.045Z,1.35
2023-02-17T09:29:22.474Z,1.40
2023-02-17T09:31:51.148Z,1.27
2023-02-17T09:34:19.506Z,1.33
2023-02-17T09:36:48.164Z,1.08
2023-02-17T09:39:18.070Z,1.08
2023-02-17T09:41:50.115Z,0.90
2023-02-17T09:44:22.858Z,0.90
2023-02-17T09:47:02.506Z,0.80
2023-02-17T09:49:38.906Z,0.73
2023-02-17T09:52:13.097Z,0.80
2023-02-17T09:54:55.250Z,0.90
2023-02-17T09:57:28.857Z,0.80
2023-02-17T10:02:33.588Z,0.60
2023-02-17T10:05:06.998Z,0.80
2023-02-17T10:07:41.014Z,0.63
2023-02-17T10:10:15.821Z,0.77
2023-02-17T10:12:48.566Z,0.70
2023-02-17T10:15:20.999Z,0.57
2023-02-17T10:17:55.273Z,0.70
2023-02-17T10:20:27.102Z,0.82
2023-02-17T10:23:01.295Z,0.70
2023-02-17T10:25:46.458Z,0.80
2023-02-17T10:28:20.492Z,0.60
2023-02-17T10:30:56.808Z,0.77
2023-02-17T10:33:32.814Z,0.70
2023-02-17T10:36:11.580Z,0.63
2023-02-17T10:38:50.828Z,0.80
2023-02-17T10:41:25.240Z,0.70
2023-02-17T10:43:54.837Z,0.80
2023-02-17T10:46:28.936Z,1.25
2023-02-17T10:48:59.162Z,2.40
2023-02-17T10:51:29.494Z,0.95
2023-02-17T10:54:04.280Z,1.00
2023-02-17T10:56:40.192Z,0.90
2023-02-17T10:59:15.777Z,1.02
2023-02-17T11:01:44.966Z,0.90
2023-02-17T11:04:14.317Z,0.60
2023-02-17T11:06:46.060Z,0.70
2023-02-17T11:09:23.415Z,0.55
2023-02-17T11:12:01.762Z,0.52
2023-02-17T11:14:32.379Z,0.60
2023-02-17T11:17:02.872Z,0.43
2023-02-17T11:19:34.049Z,0.65
2023-02-17T11:22:05.750Z,0.70
2023-02-17T11:24:36.361Z,0.60
2023-02-17T11:27:10.877Z,0.68
2023-02-17T11:29:39.529Z,0.70
2023-02-17T11:32:09.536Z,0.80
2023-02-17T11:34:40.560Z,0.80
2023-02-17T11:37:21.849Z,0.80
2023-02-17T11:39:53.718Z,1.05
2023-02-17T11:42:25.858Z,0.77
2023-02-17T11:44:56.821Z,1.00
2023-02-17T11:47:35.845Z,0.70
2023-02-17T11:50:31.723Z,0.90
2023-02-17T11:53:21.199Z,0.60
2023-02-17T11:56:08.081Z,0.70
2023-02-17T11:58:55.375Z,0.70
2023-02-17T12:01:40.442Z,0.80
2023-02-17T12:04:26.245Z,0.80
2023-02-17T12:07:08.074Z,0.77
2023-02-17T12:09:46.772Z,1.00
2023-02-17T12:12:23.451Z,0.98
2023-02-17T12:15:04.997Z,0.90
2023-02-17T12:17:47.886Z,0.80
2023-02-17T12:20:35.765Z,0.80
2023-02-17T12:23:25.855Z,0.82
2023-02-17T12:26:00.684Z,0.80
2023-02-17T12:28:43.485Z,0.77
2023-02-17T12:31:22.928Z,0.60
2023-02-17T12:33:58.553Z,0.82
2023-02-17T12:36:32.853Z,0.77
2023-02-17T12:39:05.426Z,0.65
2023-02-17T12:41:37.557Z,0.80
2023-02-17T12:44:13.529Z,0.70
2023-02-17T12:46:45.815Z,0.90
2023-02-17T12:49:18.035Z,0.60
2023-02-17T12:51:49.669Z,0.70
2023-02-17T12:54:24.439Z,0.73
2023-02-17T12:57:13.003Z,0.85
2023-02-17T12:59:43.119Z,0.70
2023-02-17T13:02:15.328Z,0.82
2023-02-17T13:04:46.643Z,0.63
2023-02-17T13:07:41.859Z,0.70
2023-02-17T13:10:21.366Z,0.93
2023-02-17T13:13:00.012Z,0.80
2023-02-17T13:15:33.390Z,0.70
2023-02-17T13:18:05.284Z,0.85
2023-02-17T13:20:53.436Z,1.00
2023-02-17T13:23:36.814Z,0.75
2023-02-17T13:26:33.308Z,0.70
2023-02-17T13:29:21.736Z,0.50
2023-02-17T13:31:53.930Z,0.50
2023-02-17T13:34:29.397Z,0.60
2023-02-17T13:36:58.992Z,0.70
2023-02-17T13:39:36.601Z,0.70
2023-02-17T13:42:05.868Z,0.60
2023-02-17T13:44:35.703Z,0.40
2023-02-17T13:47:07.749Z,0.60
2023-02-17T13:49:37.320Z,0.75
2023-02-17T13:52:17.240Z,0.60
2023-02-17T13:54:54.192Z,0.98
2023-02-17T13:57:27.440Z,0.70
2023-02-17T14:00:07.004Z,0.70
2023-02-17T14:02:38.672Z,0.63
2023-02-17T14:05:19.247Z,0.60
2023-02-17T14:07:50.725Z,0.68
2023-02-17T14:10:24.705Z,0.60
2023-02-17T14:12:54.193Z,0.40
2023-02-17T14:15:24.524Z,0.70
2023-02-17T14:17:53.423Z,0.90
2023-02-17T14:20:32.742Z,0.70
2023-02-17T14:23:04.610Z,0.80
2023-02-17T14:25:35.469Z,1.02
2023-02-17T14:28:04.718Z,0.98
2023-02-17T14:30:34.910Z,0.90
2023-02-17T14:33:06.465Z,1.10
2023-02-17T14:35:39.510Z,1.20
2023-02-17T14:38:21.298Z,1.00
2023-02-17T14:40:51.007Z,1.13
2023-02-17T14:43:19.175Z,1.17
2023-02-17T14:45:47.463Z,1.08
2023-02-17T14:48:15.735Z,1.13
2023-02-17T14:50:46.240Z,1.00
2023-02-17T14:53:19.362Z,1.10
2023-02-17T14:55:50.922Z,1.40
2023-02-17T14:58:21.329Z,1.30
2023-02-17T15:00:50.322Z,1.38
2023-02-17T15:03:19.280Z,1.60
2023-02-17T15:05:49.269Z,1.45
2023-02-17T15:08:19.938Z,1.60
2023-02-17T15:10:48.360Z,1.45
2023-02-17T15:13:19.115Z,1.60
2023-02-17T15:15:49.511Z,1.85
2023-02-17T15:18:19.852Z,2.00
2023-02-17T15:20:51.987Z,1.80
2023-02-17T15:23:22.064Z,2.08
2023-02-17T15:25:50.873Z,2.20
2023-02-17T15:28:21.760Z,2.00
2023-02-17T15:30:54.368Z,2.10
2023-02-17T15:33:24.586Z,2.25
2023-02-17T15:35:55.558Z,2.33
2023-02-17T15:38:25.136Z,2.50
2023-02-17T15:40:56.947Z,2.13
2023-02-17T15:43:28.937Z,2.42
2023-02-17T15:45:57.412Z,2.55
2023-02-17T15:48:29.891Z,2.45
2023-02-17T15:50:59.865Z,2.28
2023-02-17T15:53:32.444Z,2.53
2023-02-17T15:56:01.912Z,2.85
2023-02-17T15:58:30.814Z,2.75
2023-02-17T16:01:04.148Z,3.08
2023-02-17T16:03:32.498Z,3.28
2023-02-17T16:06:02.271Z,3.95
2023-02-17T16:08:30.638Z,3.33
2023-02-17T16:10:58.967Z,3.33
2023-02-17T16:13:28.461Z,2.97
2023-02-17T16:15:59.916Z,2.88
2023-02-17T16:18:28.332Z,2.83
2023-02-17T16:20:56.684Z,2.90
2023-02-17T16:23:26.384Z,3.53
2023-02-17T16:25:54.931Z,3.28
2023-02-17T16:28:24.008Z,3.40
2023-02-17T16:30:52.433Z,3.17
2023-02-17T16:33:20.722Z,3.42
2023-02-17T16:35:51.759Z,4.05
2023-02-17T16:38:23.486Z,4.68
2023-02-17T16:40:54.847Z,5.40
2023-02-17T16:43:25.538Z,5.70
2023-02-17T16:45:56.219Z,5.30
2023-02-17T16:48:25.620Z,5.10
2023-02-17T16:50:54.112Z,5.50
2023-02-17T16:53:22.330Z,5.90
2023-02-17T16:55:50.832Z,5.82
2023-02-17T16:58:23.123Z,5.80
2023-02-17T17:00:53.594Z,5.68
2023-02-17T17:03:23.234Z,4.97
2023-02-17T17:05:52.531Z,4.80
2023-02-17T17:08:22.143Z,5.20
2023-02-17T17:10:50.688Z,4.95
2023-02-17T17:13:20.431Z,5.40
2023-02-17T17:15:48.990Z,5.60
2023-02-17T17:18:21.287Z,6.22
2023-02-17T17:20:50.172Z,6.45
2023-02-17T17:23:19.168Z,6.60
2023-02-17T17:25:48.775Z,7.07
2023-02-17T17:28:19.866Z,6.63
2023-02-17T17:30:48.512Z,7.80
2023-02-17T17:33:17.328Z,6.88
2023-02-17T17:35:45.810Z,6.50
2023-02-17T17:38:15.797Z,6.47
2023-02-17T17:40:53.651Z,5.95
2023-02-17T17:43:24.325Z,6.22
2023-02-17T17:45:53.123Z,6.75
2023-02-17T17:48:21.482Z,7.13
2023-02-17T17:50:50.655Z,7.35
2023-02-17T17:53:19.010Z,8.65
2023-02-17T17:55:48.663Z,9.25
2023-02-17T17:58:17.362Z,9.63
2023-02-17T18:00:47.018Z,10.32
2023-02-17T18:03:15.557Z,10.68
2023-02-17T18:05:43.829Z,9.50
2023-02-17T18:08:12.542Z,9.25
2023-02-17T18:10:42.063Z,8.80
2023-02-17T18:13:13.218Z,9.23
2023-02-17T18:15:42.309Z,8.65
2023-02-17T18:18:13.076Z,9.60
2023-02-17T18:20:41.366Z,8.27
2023-02-17T18:23:09.766Z,8.88
2023-02-17T18:25:38.501Z,9.15
2023-02-17T18:28:06.832Z,9.65
2023-02-17T18:30:35.412Z,9.38
2023-02-17T18:33:04.008Z,9.60
2023-02-17T18:35:37.181Z,9.45
2023-02-17T18:38:05.642Z,9.40
2023-02-17T18:40:33.904Z,9.48
2023-02-17T18:43:02.239Z,9.50
2023-02-17T18:45:30.697Z,9.45
2023-02-17T18:47:58.999Z,9.60
2023-02-17T18:50:27.506Z,8.63
2023-02-17T18:52:57.499Z,8.85
2023-02-17T18:55:25.722Z,8.63
2023-02-17T18:57:54.115Z,9.15
2023-02-17T19:00:24.391Z,9.80
2023-02-17T19:02:53.134Z,9.05
2023-02-17T19:05:21.593Z,8.70
2023-02-17T19:07:50.201Z,8.68
2023-02-17T19:10:20.518Z,9.23
2023-02-17T19:12:48.770Z,9.02
2023-02-17T19:15:20.798Z,9.55
2023-02-17T19:17:51.115Z,9.52
2023-02-17T19:20:19.653Z,8.60
2023-02-17T19:22:47.880Z,9.25
2023-02-17T19:25:16.296Z,9.50
2023-02-17T19:27:46.097Z,9.02
2023-02-17T19:30:15.219Z,10.10
2023-02-17T19:32:44.946Z,9.48
2023-02-17T19:35:13.229Z,9.43
2023-02-17T19:37:41.648Z,9.77
2023-02-17T19:40:10.902Z,9.85
2023-02-17T19:42:40.225Z,8.98
2023-02-17T19:45:10.460Z,9.07
2023-02-17T19:47:39.234Z,8.73
2023-02-17T19:50:08.731Z,8.70
2023-02-17T19:52:38.427Z,8.77
2023-02-17T19:55:07.490Z,9.77
2023-02-17T19:57:35.703Z,9.25
2023-02-17T20:00:04.343Z,8.85
2023-02-17T20:02:34.341Z,9.27
2023-02-17T20:05:02.846Z,10.00
2023-02-17T20:07:31.807Z,9.50
2023-02-17T20:10:00.398Z,9.60
2023-02-17T20:12:28.700Z,9.32
2023-02-17T20:14:57.588Z,9.15
2023-02-17T20:17:26.144Z,8.73
2023-02-17T20:19:55.745Z,9.07
2023-02-17T20:22:24.198Z,9.20
2023-02-17T20:24:52.564Z,8.90
2023-02-17T20:27:20.812Z,9.68
2023-02-17T20:29:49.025Z,8.95
2023-02-17T20:32:17.666Z,8.98
2023-02-17T20:34:45.974Z,9.65
2023-02-17T20:37:15.652Z,9.32
2023-02-17T20:39:44.309Z,9.32
2023-02-17T20:42:12.843Z,9.02
2023-02-17T20:44:41.074Z,9.23
2023-02-17T20:47:09.776Z,9.57
2023-02-17T20:49:38.116Z,9.30
2023-02-17T20:52:06.916Z,10.00
2023-02-17T20:54:39.281Z,10.50
2023-02-17T20:57:14.824Z,10.30
2023-02-17T20:59:43.386Z,10.40
2023-02-17T21:02:12.764Z,10.35
2023-02-17T21:04:41.066Z,10.30
2023-02-17T21:07:11.097Z,11.00
2023-02-17T21:09:41.031Z,11.65
2023-02-17T21:12:09.515Z,11.85
2023-02-17T21:14:37.956Z,11.60
2023-02-17T21:17:06.596Z,11.88
2023-02-17T21:19:34.870Z,12.40
2023-02-17T21:22:03.885Z,12.57
2023-02-17T21:24:32.029Z,12.98
2023-02-17T21:27:01.651Z,13.10
2023-02-17T21:29:30.304Z,12.85
2023-02-17T21:31:58.640Z,12.43
2023-02-17T21:34:27.018Z,13.23
2023-02-17T21:36:55.725Z,13.30
2023-02-17T21:39:23.950Z,13.50
2023-02-17T21:41:53.964Z,14.30
2023-02-17T21:44:40.945Z,13.82
2023-02-17T21:47:09.257Z,13.98
2023-02-17T21:49:37.737Z,13.68
2023-02-17T21:52:06.656Z,14.05
2023-02-17T21:54:35.061Z,13.60
2023-02-17T21:57:04.421Z,12.95
2023-02-17T21:59:34.542Z,14.90
2023-02-17T22:02:02.886Z,15.13
2023-02-17T22:04:31.267Z,15.32
2023-02-17T22:06:59.638Z,15.35
2023-02-17T22:09:27.905Z,16.10
2023-02-17T22:11:56.754Z,14.90
2023-02-17T22:14:25.098Z,15.68
2023-02-17T22:16:54.772Z,15.90
2023-02-17T22:19:24.722Z,15.95
2023-02-17T22:21:53.851Z,15.85
2023-02-17T22:24:22.214Z,15.60
2023-02-17T22:26:51.155Z,17.88
2023-02-17T22:29:19.541Z,16.35
2023-02-17T22:31:50.348Z,16.88
2023-02-17T22:34:20.519Z,16.25
2023-02-17T22:36:48.792Z,16.02
2023-02-17T22:39:17.218Z,15.18
2023-02-17T22:41:45.649Z,16.33
2023-02-17T22:44:14.255Z,16.00
2023-02-17T22:46:42.595Z,15.68
2023-02-17T22:49:11.258Z,15.40
2023-02-17T22:51:42.019Z,15.20
2023-02-17T22:54:10.809Z,14.43
2023-02-17T22:56:39.534Z,15.30
2023-02-17T22:59:07.905Z,15.05
2023-02-17T23:01:37.473Z,14.63
2023-02-17T23:04:06.873Z,14.63
2023-02-17T23:06:38.244Z,13.90
2023-02-17T23:09:09.615Z,13.55
2023-02-17T23:11:53.952Z,13.48
2023-02-17T23:14:25.938Z,13.98
2023-02-17T23:16:55.946Z,14.80
2023-02-17T23:19:24.923Z,13.93
2023-02-17T23:21:56.159Z,13.75
2023-02-17T23:24:27.534Z,14.35
2023-02-17T23:26:57.230Z,13.27
2023-02-17T23:29:25.790Z,12.43
2023-02-17T23:31:54.080Z,12.40
2023-02-17T23:34:22.392Z,12.32
2023-02-17T23:36:50.832Z,11.93
2023-02-17T23:39:19.316Z,12.18
2023-02-17T23:41:49.198Z,12.00
2023-02-17T23:44:17.997Z,11.70
2023-02-17T23:46:47.418Z,11.98
2023-02-17T23:49:17.633Z,12.77
2023-02-17T23:51:46.896Z,12.73
2023-02-17T23:54:16.350Z,12.95
2023-02-17T23:56:44.959Z,13.05
2023-02-17T23:59:14.743Z,12.77
